Mount Magnet, Australia
Current Conditions -  °F | °C
As of 6:00 PM on Monday 22 Dec 2014 (Local Time) from YMEK Reporting Station
Clear Clear  
Wind Chill: 95°   Ceiling: Unl
Heat Index: 95°   Visibility: 6mi
Dew Point: 41°   Wind: 9mph
Humidity: 15%   Direction: 170°S
Pressure: 29.8"   Gusts: NA
Location:  28.06°S, 117.85°E
Report Text: YMEK 221000Z AUTO 17008KT 9999 // NCD 35/05 Q1009
Loading
Personal Weather Stations






























Interactive Weather Map New forecast layout! Learn more

10-Day Weather Forecast

Advertisements
Track Severe Weather on mobile